sensor_id;sensor_type;location;lat;lon;timestamp;pressure;altitude;pressure_sealevel;temperature;humidity
66206;BME280;53009;52.490;4.976;2023-03-04T00:01:53;102800;;;6.6;0
66206;BME280;53009;52.490;4.976;2023-03-04T00:06:53;102800;;;6.6;0
66206;BME280;53009;52.490;4.976;2023-03-04T00:11:53;102800;;;6.6;0
66206;BME280;53009;52.490;4.976;2023-03-04T00:16:53;102800;;;6.6;0
66206;BME280;53009;52.490;4.976;2023-03-04T00:21:53;102800;;;6.5;0
66206;BME280;53009;52.490;4.976;2023-03-04T00:26:53;102800;;;6.5;0
66206;BME280;53009;52.490;4.976;2023-03-04T00:31:53;102800;;;6.5;0
66206;BME280;53009;52.490;4.976;2023-03-04T00:36:53;102800;;;6.5;0
66206;BME280;53009;52.490;4.976;2023-03-04T00:41:53;102800;;;6.5;0
66206;BME280;53009;52.490;4.976;2023-03-04T00:46:53;102800;;;6.5;0
66206;BME280;53009;52.490;4.976;2023-03-04T00:51:53;102800;;;6.5;0
66206;BME280;53009;52.490;4.976;2023-03-04T00:56:53;102800;;;6.5;0
66206;BME280;53009;52.490;4.976;2023-03-04T01:01:53;102800;;;6.5;0
66206;BME280;53009;52.490;4.976;2023-03-04T01:06:53;102800;;;6.5;0
66206;BME280;53009;52.490;4.976;2023-03-04T01:11:53;102800;;;6.5;0
66206;BME280;53009;52.490;4.976;2023-03-04T01:16:53;102800;;;6.5;0
66206;BME280;53009;52.490;4.976;2023-03-04T01:21:53;102800;;;6.4;0
66206;BME280;53009;52.490;4.976;2023-03-04T01:26:53;102800;;;6.5;0
66206;BME280;53009;52.490;4.976;2023-03-04T01:31:53;102800;;;6.5;0
66206;BME280;53009;52.490;4.976;2023-03-04T01:36:53;102800;;;6.5;0
66206;BME280;53009;52.490;4.976;2023-03-04T01:41:53;102800;;;6.5;0
66206;BME280;53009;52.490;4.976;2023-03-04T01:46:53;102800;;;6.4;0
66206;BME280;53009;52.490;4.976;2023-03-04T01:51:53;102800;;;6.4;0
66206;BME280;53009;52.490;4.976;2023-03-04T01:56:53;102800;;;6.5;0
66206;BME280;53009;52.490;4.976;2023-03-04T02:01:54;102800;;;6.5;0
66206;BME280;53009;52.490;4.976;2023-03-04T02:06:53;102800;;;6.5;0
66206;BME280;53009;52.490;4.976;2023-03-04T02:11:53;102800;;;6.5;0
66206;BME280;53009;52.490;4.976;2023-03-04T02:16:53;102800;;;6.5;0
66206;BME280;53009;52.490;4.976;2023-03-04T02:21:53;102800;;;6.5;0
66206;BME280;53009;52.490;4.976;2023-03-04T02:26:53;102800;;;6.5;0
66206;BME280;53009;52.490;4.976;2023-03-04T02:31:53;102800;;;6.4;0
66206;BME280;53009;52.490;4.976;2023-03-04T02:36:53;102800;;;6.4;0
66206;BME280;53009;52.490;4.976;2023-03-04T02:41:54;102800;;;6.4;0
66206;BME280;53009;52.490;4.976;2023-03-04T02:46:54;102700;;;6.4;0
66206;BME280;53009;52.490;4.976;2023-03-04T02:51:57;102700;;;6.4;0
66206;BME280;53009;52.490;4.976;2023-03-04T02:56:54;102700;;;6.4;0
66206;BME280;53009;52.490;4.976;2023-03-04T03:01:53;102700;;;6.4;0
66206;BME280;53009;52.490;4.976;2023-03-04T03:06:53;102700;;;6.4;0
66206;BME280;53009;52.490;4.976;2023-03-04T03:11:53;102700;;;6.4;0
66206;BME280;53009;52.490;4.976;2023-03-04T03:16:53;102700;;;6.4;0
66206;BME280;53009;52.490;4.976;2023-03-04T03:21:53;102700;;;6.4;0
66206;BME280;53009;52.490;4.976;2023-03-04T03:26:53;102700;;;6.3;0
66206;BME280;53009;52.490;4.976;2023-03-04T03:31:53;102700;;;6.4;0
66206;BME280;53009;52.490;4.976;2023-03-04T03:36:53;102700;;;6.3;0
66206;BME280;53009;52.490;4.976;2023-03-04T03:41:53;102700;;;6.4;0
66206;BME280;53009;52.490;4.976;2023-03-04T03:46:53;102700;;;6.4;0
66206;BME280;53009;52.490;4.976;2023-03-04T03:51:53;102700;;;6.4;0
66206;BME280;53009;52.490;4.976;2023-03-04T03:56:53;102700;;;6.3;0
66206;BME280;53009;52.490;4.976;2023-03-04T04:01:53;102700;;;6.3;0
66206;BME280;53009;52.490;4.976;2023-03-04T04:06:53;102700;;;6.3;0
66206;BME280;53009;52.490;4.976;2023-03-04T04:11:53;102700;;;6.3;0
66206;BME280;53009;52.490;4.976;2023-03-04T04:16:53;102700;;;6.3;0
66206;BME280;53009;52.490;4.976;2023-03-04T04:21:53;102700;;;6.3;0
66206;BME280;53009;52.490;4.976;2023-03-04T04:26:53;102700;;;6.3;0
66206;BME280;53009;52.490;4.976;2023-03-04T04:31:53;102700;;;6.3;0
66206;BME280;53009;52.490;4.976;2023-03-04T04:36:53;102700;;;6.3;0
66206;BME280;53009;52.490;4.976;2023-03-04T04:41:53;102700;;;6.3;0
66206;BME280;53009;52.490;4.976;2023-03-04T04:46:53;102700;;;6.3;100
66206;BME280;53009;52.490;4.976;2023-03-04T04:51:53;102700;;;6.3;100
66206;BME280;53009;52.490;4.976;2023-03-04T04:56:53;102700;;;6.3;100
66206;BME280;53009;52.490;4.976;2023-03-04T05:01:53;102700;;;6.3;100
66206;BME280;53009;52.490;4.976;2023-03-04T05:06:53;102700;;;6.3;100
66206;BME280;53009;52.490;4.976;2023-03-04T05:11:53;102700;;;6.3;100
66206;BME280;53009;52.490;4.976;2023-03-04T05:16:53;102700;;;6.3;100
66206;BME280;53009;52.490;4.976;2023-03-04T05:21:53;102700;;;6.3;100
66206;BME280;53009;52.490;4.976;2023-03-04T05:26:53;102700;;;6.3;100
66206;BME280;53009;52.490;4.976;2023-03-04T05:31:54;102700;;;6.3;100
66206;BME280;53009;52.490;4.976;2023-03-04T05:36:54;102700;;;6.3;0
66206;BME280;53009;52.490;4.976;2023-03-04T05:41:53;102700;;;6.3;0
66206;BME280;53009;52.490;4.976;2023-03-04T05:46:53;102700;;;6.3;0
66206;BME280;53009;52.490;4.976;2023-03-04T05:48:21;102700;;;6.3;0
66206;BME280;53009;52.490;4.976;2023-03-04T05:50:22;102700;;;6.3;0
66206;BME280;53009;52.490;4.976;2023-03-04T05:53:37;102700;;;6.3;0
66206;BME280;53009;52.490;4.976;2023-03-04T05:58:37;102700;;;6.3;100
66206;BME280;53009;52.490;4.976;2023-03-04T05:59:31;102700;;;6.3;100
66206;BME280;53009;52.490;4.976;2023-03-04T06:00:31;102700;;;6.3;100
66206;BME280;53009;52.490;4.976;2023-03-04T06:03:02;102700;;;6.3;100
66206;BME280;53009;52.490;4.976;2023-03-04T06:04:19;102700;;;6.3;100
66206;BME280;53009;52.490;4.976;2023-03-04T06:08:37;102700;;;6.3;100
66206;BME280;53009;52.490;4.976;2023-03-04T06:11:43;102700;;;6.3;100
66206;BME280;53009;52.490;4.976;2023-03-04T06:16:01;102700;;;6.3;100
66206;BME280;53009;52.490;4.976;2023-03-04T06:18:10;102700;;;6.3;100
66206;BME280;53009;52.490;4.976;2023-03-04T06:19:25;102700;;;6.3;100
66206;BME280;53009;52.490;4.976;2023-03-04T06:21:03;102700;;;6.3;100
66206;BME280;53009;52.490;4.976;2023-03-04T06:26:03;102700;;;6.2;100
66206;BME280;53009;52.490;4.976;2023-03-04T06:26:51;102700;;;6.2;100
66206;BME280;53009;52.490;4.976;2023-03-04T06:28:14;102700;;;6.2;100
66206;BME280;53009;52.490;4.976;2023-03-04T06:33:14;102700;;;6.2;100
66206;BME280;53009;52.490;4.976;2023-03-04T06:38:14;102700;;;6.2;100
66206;BME280;53009;52.490;4.976;2023-03-04T06:38:56;102700;;;6.2;100
66206;BME280;53009;52.490;4.976;2023-03-04T06:40:43;102700;;;6.2;100
66206;BME280;53009;52.490;4.976;2023-03-04T06:43:31;102700;;;6.3;100
66206;BME280;53009;52.490;4.976;2023-03-04T06:48:01;102700;;;6.3;100
66206;BME280;53009;52.490;4.976;2023-03-04T06:49:28;102700;;;6.3;100
66206;BME280;53009;52.490;4.976;2023-03-04T06:49:54;102700;;;6.3;100
66206;BME280;53009;52.490;4.976;2023-03-04T06:51:16;102700;;;6.3;100
66206;BME280;53009;52.490;4.976;2023-03-04T06:54:30;102700;;;6.3;100
66206;BME280;53009;52.490;4.976;2023-03-04T06:56:41;102700;;;6.3;100
66206;BME280;53009;52.490;4.976;2023-03-04T07:01:11;102700;;;6.4;100
66206;BME280;53009;52.490;4.976;2023-03-04T07:01:49;102700;;;6.4;100
66206;BME280;53009;52.490;4.976;2023-03-04T07:05:18;102700;;;6.4;100
66206;BME280;53009;52.490;4.976;2023-03-04T07:08:32;102700;;;6.4;100
66206;BME280;53009;52.490;4.976;2023-03-04T07:13:32;102700;;;6.4;100
66206;BME280;53009;52.490;4.976;2023-03-04T07:14:31;102700;;;6.4;100
66206;BME280;53009;52.490;4.976;2023-03-04T07:15:36;102700;;;6.3;100
66206;BME280;53009;52.490;4.976;2023-03-04T07:19:31;102700;;;6.3;100
66206;BME280;53009;52.490;4.976;2023-03-04T07:24:31;102700;;;6.4;100
66206;BME280;53009;52.490;4.976;2023-03-04T07:25:41;102700;;;6.4;100
66206;BME280;53009;52.490;4.976;2023-03-04T07:26:48;102700;;;6.4;100
66206;BME280;53009;52.490;4.976;2023-03-04T07:29:14;102700;;;6.4;100
66206;BME280;53009;52.490;4.976;2023-03-04T07:30:46;102700;;;6.5;100
66206;BME280;53009;52.490;4.976;2023-03-04T07:33:04;102700;;;6.6;100
66206;BME280;53009;52.490;4.976;2023-03-04T07:34:12;102700;;;6.6;100
66206;BME280;53009;52.490;4.976;2023-03-04T07:36:22;102700;;;6.7;100
66206;BME280;53009;52.490;4.976;2023-03-04T07:41:23;102700;;;6.8;100
66206;BME280;53009;52.490;4.976;2023-03-04T07:42:24;102700;;;6.8;100
66206;BME280;53009;52.490;4.976;2023-03-04T07:47:31;102700;;;6.9;100
66206;BME280;53009;52.490;4.976;2023-03-04T07:48:37;102700;;;6.9;100
66206;BME280;53009;52.490;4.976;2023-03-04T07:53:37;102700;;;7;100
66206;BME280;53009;52.490;4.976;2023-03-04T07:58:15;102700;;;7.1;100
66206;BME280;53009;52.490;4.976;2023-03-04T07:59:21;102700;;;7.1;100
66206;BME280;53009;52.490;4.976;2023-03-04T08:00:42;102700;;;7.1;100
66206;BME280;53009;52.490;4.976;2023-03-04T08:05:42;102700;;;7.2;100
66206;BME280;53009;52.490;4.976;2023-03-04T08:10:42;102700;;;7.2;100
66206;BME280;53009;52.490;4.976;2023-03-04T08:11:32;102700;;;7.2;100
66206;BME280;53009;52.490;4.976;2023-03-04T08:12:31;102800;;;7.2;100
66206;BME280;53009;52.490;4.976;2023-03-04T08:17:45;102700;;;7.2;100
66206;BME280;53009;52.490;4.976;2023-03-04T08:19:55;102800;;;7.2;100
66206;BME280;53009;52.490;4.976;2023-03-04T08:21:01;102800;;;7.2;100
66206;BME280;53009;52.490;4.976;2023-03-04T08:21:34;102800;;;7.2;100
66206;BME280;53009;52.490;4.976;2023-03-04T08:26:35;102800;;;7.3;100
66206;BME280;53009;52.490;4.976;2023-03-04T08:31:04;102800;;;7.4;100
66206;BME280;53009;52.490;4.976;2023-03-04T08:32:27;102800;;;7.3;100
66206;BME280;53009;52.490;4.976;2023-03-04T08:33:42;102700;;;7.4;100
66206;BME280;53009;52.490;4.976;2023-03-04T08:34:55;102800;;;7.5;100
66206;BME280;53009;52.490;4.976;2023-03-04T08:39:55;102800;;;7.7;100
66206;BME280;53009;52.490;4.976;2023-03-04T08:44:56;102700;;;7.6;100
66206;BME280;53009;52.490;4.976;2023-03-04T08:49:55;102700;;;7.8;100
66206;BME280;53009;52.490;4.976;2023-03-04T08:54:56;102700;;;7.7;100
66206;BME280;53009;52.490;4.976;2023-03-04T08:59:55;102700;;;8;100
66206;BME280;53009;52.490;4.976;2023-03-04T09:04:56;102700;;;8.1;100
66206;BME280;53009;52.490;4.976;2023-03-04T09:09:56;102700;;;8.2;100
66206;BME280;53009;52.490;4.976;2023-03-04T09:14:55;102700;;;8.5;100
66206;BME280;53009;52.490;4.976;2023-03-04T09:19:56;102700;;;8.3;100
66206;BME280;53009;52.490;4.976;2023-03-04T09:24:56;102700;;;8.2;100
66206;BME280;53009;52.490;4.976;2023-03-04T09:29:56;102700;;;8.3;100
66206;BME280;53009;52.490;4.976;2023-03-04T09:34:55;102700;;;8.3;100
66206;BME280;53009;52.490;4.976;2023-03-04T09:39:56;102700;;;8.1;100
66206;BME280;53009;52.490;4.976;2023-03-04T09:44:56;102700;;;8.1;100
66206;BME280;53009;52.490;4.976;2023-03-04T09:49:57;102700;;;8;100
66206;BME280;53009;52.490;4.976;2023-03-04T09:54:59;102700;;;8.1;100
66206;BME280;53009;52.490;4.976;2023-03-04T09:59:59;102700;;;8.5;100
66206;BME280;53009;52.490;4.976;2023-03-04T10:04:58;102700;;;8.8;100
66206;BME280;53009;52.490;4.976;2023-03-04T10:09:56;102700;;;9.3;100
66206;BME280;53009;52.490;4.976;2023-03-04T10:14:57;102700;;;8.7;100
66206;BME280;53009;52.490;4.976;2023-03-04T10:19:56;102700;;;8.3;100
66206;BME280;53009;52.490;4.976;2023-03-04T10:24:56;102700;;;8.2;100
66206;BME280;53009;52.490;4.976;2023-03-04T10:29:57;102700;;;8.2;100
66206;BME280;53009;52.490;4.976;2023-03-04T10:34:56;102700;;;8.4;100
66206;BME280;53009;52.490;4.976;2023-03-04T10:39:57;102700;;;8.6;100
66206;BME280;53009;52.490;4.976;2023-03-04T10:44:56;102700;;;8.9;100
66206;BME280;53009;52.490;4.976;2023-03-04T10:49:57;102700;;;9.5;100
66206;BME280;53009;52.490;4.976;2023-03-04T10:54:56;102700;;;9.4;100
66206;BME280;53009;52.490;4.976;2023-03-04T10:59:56;102700;;;8.6;100
66206;BME280;53009;52.490;4.976;2023-03-04T11:05:02;102700;;;8.4;100
66206;BME280;53009;52.490;4.976;2023-03-04T11:10:00;102700;;;8.2;100
66206;BME280;53009;52.490;4.976;2023-03-04T11:14:56;102700;;;8.5;100
66206;BME280;53009;52.490;4.976;2023-03-04T11:18:39;102700;;;8.2;100
66206;BME280;53009;52.490;4.976;2023-03-04T11:20:32;102700;;;8;100
66206;BME280;53009;52.490;4.976;2023-03-04T11:23:29;102700;;;7.8;100
66206;BME280;53009;52.490;4.976;2023-03-04T11:24:40;102700;;;7.8;100
66206;BME280;53009;52.490;4.976;2023-03-04T11:27:09;102700;;;7.8;100
66206;BME280;53009;52.490;4.976;2023-03-04T11:30:32;102700;;;7.9;100
66206;BME280;53009;52.490;4.976;2023-03-04T11:31:45;102700;;;8;100
66206;BME280;53009;52.490;4.976;2023-03-04T11:34:11;102700;;;8.1;100
66206;BME280;53009;52.490;4.976;2023-03-04T11:36:22;102700;;;8.1;100
66206;BME280;53009;52.490;4.976;2023-03-04T11:38:31;102700;;;8.2;100
66206;BME280;53009;52.490;4.976;2023-03-04T11:39:45;102700;;;8.4;100
66206;BME280;53009;52.490;4.976;2023-03-04T11:40:43;102700;;;8.5;100
66206;BME280;53009;52.490;4.976;2023-03-04T11:45:09;102700;;;8.8;100
66206;BME280;53009;52.490;4.976;2023-03-04T11:48:41;102700;;;9.2;100
66206;BME280;53009;52.490;4.976;2023-03-04T11:49:54;102700;;;9.4;100
66206;BME280;53009;52.490;4.976;2023-03-04T11:54:56;102700;;;9.9;0
66206;BME280;53009;52.490;4.976;2023-03-04T11:58:17;102700;;;9.5;0
66206;BME280;53009;52.490;4.976;2023-03-04T11:59:27;102700;;;9.3;0
66206;BME280;53009;52.490;4.976;2023-03-04T12:01:54;102700;;;8.9;0
66206;BME280;53009;52.490;4.976;2023-03-04T12:04:06;102700;;;8.8;0
66206;BME280;53009;52.490;4.976;2023-03-04T12:09:12;102700;;;8.5;100
66206;BME280;53009;52.490;4.976;2023-03-04T12:12:25;102700;;;8.4;0
66206;BME280;53009;52.490;4.976;2023-03-04T12:14:49;102700;;;8.3;0
66206;BME280;53009;52.490;4.976;2023-03-04T12:16:15;102700;;;8.3;0
66206;BME280;53009;52.490;4.976;2023-03-04T12:17:29;102700;;;8.3;100
66206;BME280;53009;52.490;4.976;2023-03-04T12:22:27;102700;;;8.4;0
66206;BME280;53009;52.490;4.976;2023-03-04T12:24:11;102700;;;8.4;0
66206;BME280;53009;52.490;4.976;2023-03-04T12:26:07;102700;;;8.3;0
66206;BME280;53009;52.490;4.976;2023-03-04T12:26:35;102700;;;8.3;0
66206;BME280;53009;52.490;4.976;2023-03-04T12:28:24;102700;;;8.3;0
66206;BME280;53009;52.490;4.976;2023-03-04T12:31:22;102700;;;8.5;0
66206;BME280;53009;52.490;4.976;2023-03-04T12:33:40;102700;;;8.5;0
66206;BME280;53009;52.490;4.976;2023-03-04T12:36:45;102700;;;8.5;0
66206;BME280;53009;52.490;4.976;2023-03-04T12:40:17;102700;;;8.7;0
66206;BME280;53009;52.490;4.976;2023-03-04T12:42:54;102700;;;8.7;0
66206;BME280;53009;52.490;4.976;2023-03-04T12:43:49;102700;;;8.7;0
66206;BME280;53009;52.490;4.976;2023-03-04T12:46:17;102700;;;8.7;0
66206;BME280;53009;52.490;4.976;2023-03-04T12:50:26;102700;;;8.5;0
66206;BME280;53009;52.490;4.976;2023-03-04T12:52:43;102700;;;8.6;0
66206;BME280;53009;52.490;4.976;2023-03-04T12:53:59;102700;;;8.6;0
66206;BME280;53009;52.490;4.976;2023-03-04T12:54:55;102700;;;8.6;0
66206;BME280;53009;52.490;4.976;2023-03-04T12:59:55;102600;;;8.8;0
66206;BME280;53009;52.490;4.976;2023-03-04T13:00:34;102600;;;8.8;0
66206;BME280;53009;52.490;4.976;2023-03-04T13:03:32;102600;;;8.8;0
66206;BME280;53009;52.490;4.976;2023-03-04T13:06:45;102600;;;8.7;0
66206;BME280;53009;52.490;4.976;2023-03-04T13:08:57;102600;;;8.7;0
66206;BME280;53009;52.490;4.976;2023-03-04T13:13:59;102600;;;8.9;0
66206;BME280;53009;52.490;4.976;2023-03-04T13:18:54;102600;;;8.8;0
66206;BME280;53009;52.490;4.976;2023-03-04T13:23:54;102600;;;8.8;0
66206;BME280;53009;52.490;4.976;2023-03-04T13:29:08;102600;;;8.7;0
66206;BME280;53009;52.490;4.976;2023-03-04T13:33:55;102600;;;8.5;0
66206;BME280;53009;52.490;4.976;2023-03-04T13:38:56;102600;;;8.5;0
66206;BME280;53009;52.490;4.976;2023-03-04T13:43:54;102600;;;8.2;100
66206;BME280;53009;52.490;4.976;2023-03-04T13:48:59;102600;;;8;100
66206;BME280;53009;52.490;4.976;2023-03-04T13:53:54;102600;;;7.9;100
66206;BME280;53009;52.490;4.976;2023-03-04T13:59:12;102600;;;7.9;0
66206;BME280;53009;52.490;4.976;2023-03-04T14:03:54;102600;;;7.9;0
66206;BME280;53009;52.490;4.976;2023-03-04T14:08:54;102600;;;7.9;0
66206;BME280;53009;52.490;4.976;2023-03-04T14:13:54;102600;;;8.1;0
66206;BME280;53009;52.490;4.976;2023-03-04T14:18:57;102600;;;8.3;0
66206;BME280;53009;52.490;4.976;2023-03-04T14:24:03;102600;;;8.5;0
66206;BME280;53009;52.490;4.976;2023-03-04T14:28:54;102600;;;8.3;0
66206;BME280;53009;52.490;4.976;2023-03-04T14:33:55;102600;;;8.2;0
66206;BME280;53009;52.490;4.976;2023-03-04T14:38:55;102600;;;8.2;0
66206;BME280;53009;52.490;4.976;2023-03-04T14:43:57;102600;;;8.2;0
66206;BME280;53009;52.490;4.976;2023-03-04T14:48:54;102600;;;8.2;0
66206;BME280;53009;52.490;4.976;2023-03-04T14:53:54;102600;;;8.4;0
66206;BME280;53009;52.490;4.976;2023-03-04T14:58:55;102600;;;8.4;0
66206;BME280;53009;52.490;4.976;2023-03-04T15:03:55;102600;;;8.3;0
66206;BME280;53009;52.490;4.976;2023-03-04T15:08:55;102600;;;8.3;0
66206;BME280;53009;52.490;4.976;2023-03-04T15:13:54;102600;;;8.2;0
66206;BME280;53009;52.490;4.976;2023-03-04T15:18:55;102600;;;8.2;0
66206;BME280;53009;52.490;4.976;2023-03-04T15:23:54;102600;;;8.2;0
66206;BME280;53009;52.490;4.976;2023-03-04T15:28:54;102600;;;8.1;0
66206;BME280;53009;52.490;4.976;2023-03-04T15:33:54;102600;;;8.1;0
66206;BME280;53009;52.490;4.976;2023-03-04T15:38:54;102600;;;8.2;0
66206;BME280;53009;52.490;4.976;2023-03-04T15:43:54;102600;;;8.1;0
66206;BME280;53009;52.490;4.976;2023-03-04T15:48:54;102600;;;8;0
66206;BME280;53009;52.490;4.976;2023-03-04T15:53:54;102600;;;7.8;0
66206;BME280;53009;52.490;4.976;2023-03-04T15:58:55;102600;;;7.8;0
66206;BME280;53009;52.490;4.976;2023-03-04T16:03:54;102500;;;7.7;0
66206;BME280;53009;52.490;4.976;2023-03-04T16:08:54;102500;;;7.7;0
66206;BME280;53009;52.490;4.976;2023-03-04T16:13:54;102500;;;7.7;0
66206;BME280;53009;52.490;4.976;2023-03-04T16:18:54;102500;;;7.8;0
66206;BME280;53009;52.490;4.976;2023-03-04T16:23:54;102500;;;7.8;0
66206;BME280;53009;52.490;4.976;2023-03-04T16:28:54;102500;;;7.7;0
66206;BME280;53009;52.490;4.976;2023-03-04T16:33:54;102500;;;7.5;0
66206;BME280;53009;52.490;4.976;2023-03-04T16:38:54;102500;;;7.5;0
66206;BME280;53009;52.490;4.976;2023-03-04T16:43:54;102500;;;7.6;0
66206;BME280;53009;52.490;4.976;2023-03-04T16:48:54;102500;;;7.6;0
66206;BME280;53009;52.490;4.976;2023-03-04T16:53:55;102500;;;7.6;0
66206;BME280;53009;52.490;4.976;2023-03-04T16:58:54;102500;;;7.6;0
66206;BME280;53009;52.490;4.976;2023-03-04T17:03:54;102500;;;7.5;0
66206;BME280;53009;52.490;4.976;2023-03-04T17:08:54;102500;;;7.3;0
66206;BME280;53009;52.490;4.976;2023-03-04T17:13:54;102500;;;7.3;0
66206;BME280;53009;52.490;4.976;2023-03-04T17:18:54;102500;;;7.3;0
66206;BME280;53009;52.490;4.976;2023-03-04T17:23:54;102500;;;7.2;0
66206;BME280;53009;52.490;4.976;2023-03-04T17:28:54;102500;;;7.1;0
66206;BME280;53009;52.490;4.976;2023-03-04T17:33:54;102500;;;7.3;0
66206;BME280;53009;52.490;4.976;2023-03-04T17:38:54;102500;;;7.3;0
66206;BME280;53009;52.490;4.976;2023-03-04T17:43:54;102600;;;7.2;0
66206;BME280;53009;52.490;4.976;2023-03-04T17:48:55;102600;;;7.2;0
66206;BME280;53009;52.490;4.976;2023-03-04T17:53:54;102600;;;7;0
66206;BME280;53009;52.490;4.976;2023-03-04T17:58:54;102600;;;6.9;0
66206;BME280;53009;52.490;4.976;2023-03-04T18:03:54;102600;;;6.9;0
66206;BME280;53009;52.490;4.976;2023-03-04T18:08:54;102600;;;6.9;0
66206;BME280;53009;52.490;4.976;2023-03-04T18:13:54;102600;;;6.9;0
66206;BME280;53009;52.490;4.976;2023-03-04T18:18:55;102600;;;6.9;0
66206;BME280;53009;52.490;4.976;2023-03-04T18:23:54;102600;;;6.9;0
66206;BME280;53009;52.490;4.976;2023-03-04T18:28:54;102600;;;6.8;0
66206;BME280;53009;52.490;4.976;2023-03-04T18:33:54;102600;;;6.8;0
66206;BME280;53009;52.490;4.976;2023-03-04T18:38:54;102600;;;6.7;0
66206;BME280;53009;52.490;4.976;2023-03-04T18:43:54;102600;;;6.6;0
66206;BME280;53009;52.490;4.976;2023-03-04T18:48:55;102600;;;6.5;0
66206;BME280;53009;52.490;4.976;2023-03-04T18:53:55;102500;;;6.5;0
66206;BME280;53009;52.490;4.976;2023-03-04T18:58:54;102500;;;6.4;0
66206;BME280;53009;52.490;4.976;2023-03-04T19:03:55;102500;;;6.5;0
66206;BME280;53009;52.490;4.976;2023-03-04T19:08:55;102500;;;6.4;0
66206;BME280;53009;52.490;4.976;2023-03-04T19:13:55;102500;;;6.3;0
66206;BME280;53009;52.490;4.976;2023-03-04T19:18:55;102500;;;6.3;0
66206;BME280;53009;52.490;4.976;2023-03-04T19:23:55;102500;;;6.3;0
66206;BME280;53009;52.490;4.976;2023-03-04T19:28:55;102500;;;6.3;0
66206;BME280;53009;52.490;4.976;2023-03-04T19:33:55;102500;;;6.3;0
66206;BME280;53009;52.490;4.976;2023-03-04T19:38:54;102500;;;6.3;0
66206;BME280;53009;52.490;4.976;2023-03-04T19:43:55;102500;;;6.2;0
66206;BME280;53009;52.490;4.976;2023-03-04T19:48:55;102600;;;6.2;0
66206;BME280;53009;52.490;4.976;2023-03-04T19:53:55;102500;;;6.1;0
66206;BME280;53009;52.490;4.976;2023-03-04T19:58:55;102500;;;6;0
66206;BME280;53009;52.490;4.976;2023-03-04T20:03:55;102500;;;6;0
66206;BME280;53009;52.490;4.976;2023-03-04T20:08:55;102500;;;6;0
66206;BME280;53009;52.490;4.976;2023-03-04T20:13:55;102500;;;5.9;0
66206;BME280;53009;52.490;4.976;2023-03-04T20:18:55;102500;;;6;0
66206;BME280;53009;52.490;4.976;2023-03-04T20:23:55;102500;;;5.9;0
66206;BME280;53009;52.490;4.976;2023-03-04T20:28:55;102500;;;6;0
66206;BME280;53009;52.490;4.976;2023-03-04T20:33:55;102500;;;6;0
66206;BME280;53009;52.490;4.976;2023-03-04T20:38:55;102500;;;5.9;0
66206;BME280;53009;52.490;4.976;2023-03-04T20:43:55;102500;;;5.8;0
66206;BME280;53009;52.490;4.976;2023-03-04T20:48:55;102500;;;5.8;0
66206;BME280;53009;52.490;4.976;2023-03-04T20:53:55;102500;;;5.7;0
66206;BME280;53009;52.490;4.976;2023-03-04T20:58:55;102500;;;5.7;0
66206;BME280;53009;52.490;4.976;2023-03-04T21:03:55;102500;;;5.7;0
66206;BME280;53009;52.490;4.976;2023-03-04T21:08:55;102500;;;5.6;0
66206;BME280;53009;52.490;4.976;2023-03-04T21:13:55;102500;;;5.7;0
66206;BME280;53009;52.490;4.976;2023-03-04T21:18:55;102500;;;5.7;0
66206;BME280;53009;52.490;4.976;2023-03-04T21:23:56;102500;;;5.7;0
66206;BME280;53009;52.490;4.976;2023-03-04T21:28:55;102500;;;5.7;0
66206;BME280;53009;52.490;4.976;2023-03-04T21:33:55;102500;;;5.7;0
66206;BME280;53009;52.490;4.976;2023-03-04T21:38:55;102500;;;5.6;0
66206;BME280;53009;52.490;4.976;2023-03-04T21:43:55;102500;;;5.6;0
66206;BME280;53009;52.490;4.976;2023-03-04T21:48:55;102500;;;5.7;0
66206;BME280;53009;52.490;4.976;2023-03-04T21:53:55;102500;;;5.7;0
66206;BME280;53009;52.490;4.976;2023-03-04T21:58:57;102500;;;5.7;100
66206;BME280;53009;52.490;4.976;2023-03-04T22:03:55;102500;;;5.7;0
66206;BME280;53009;52.490;4.976;2023-03-04T22:08:55;102500;;;5.7;100
66206;BME280;53009;52.490;4.976;2023-03-04T22:13:55;102500;;;5.7;0
66206;BME280;53009;52.490;4.976;2023-03-04T22:18:55;102500;;;5.7;0
66206;BME280;53009;52.490;4.976;2023-03-04T22:23:55;102500;;;5.7;0
66206;BME280;53009;52.490;4.976;2023-03-04T22:28:55;102500;;;5.6;0
66206;BME280;53009;52.490;4.976;2023-03-04T22:33:55;102400;;;5.6;0
66206;BME280;53009;52.490;4.976;2023-03-04T22:38:55;102400;;;5.4;0
66206;BME280;53009;52.490;4.976;2023-03-04T22:43:55;102400;;;5.3;0
66206;BME280;53009;52.490;4.976;2023-03-04T22:48:55;102400;;;5.2;0
66206;BME280;53009;52.490;4.976;2023-03-04T22:53:55;102400;;;5.1;0
66206;BME280;53009;52.490;4.976;2023-03-04T22:58:55;102400;;;5.1;0
66206;BME280;53009;52.490;4.976;2023-03-04T23:03:55;102400;;;4.9;0
66206;BME280;53009;52.490;4.976;2023-03-04T23:08:55;102400;;;4.9;0
66206;BME280;53009;52.490;4.976;2023-03-04T23:13:55;102400;;;4.9;0
66206;BME280;53009;52.490;4.976;2023-03-04T23:18:55;102400;;;4.8;0
66206;BME280;53009;52.490;4.976;2023-03-04T23:23:55;102400;;;4.8;0
66206;BME280;53009;52.490;4.976;2023-03-04T23:28:55;102400;;;4.7;0
66206;BME280;53009;52.490;4.976;2023-03-04T23:33:55;102400;;;4.7;0
66206;BME280;53009;52.490;4.976;2023-03-04T23:36:56;102400;;;4.8;0
66206;BME280;53009;52.490;4.976;2023-03-04T23:40:19;102400;;;4.8;0
66206;BME280;53009;52.490;4.976;2023-03-04T23:41:18;102400;;;4.8;0
66206;BME280;53009;52.490;4.976;2023-03-04T23:43:20;102400;;;4.8;0
66206;BME280;53009;52.490;4.976;2023-03-04T23:44:10;102400;;;4.8;0
66206;BME280;53009;52.490;4.976;2023-03-04T23:45:40;102400;;;4.8;0
66206;BME280;53009;52.490;4.976;2023-03-04T23:46:38;102400;;;4.8;0
66206;BME280;53009;52.490;4.976;2023-03-04T23:48:00;102400;;;4.8;0
66206;BME280;53009;52.490;4.976;2023-03-04T23:50:09;102400;;;4.8;0
66206;BME280;53009;52.490;4.976;2023-03-04T23:53:16;102400;;;4.7;0
66206;BME280;53009;52.490;4.976;2023-03-04T23:55:49;102400;;;4.8;0
66206;BME280;53009;52.490;4.976;2023-03-04T23:57:52;102400;;;4.8;0
